METAR* REPORTS - Stations within 60 miles

(*Meteorological Terminal Aviation Routine weather report)

 

KRDG - Reading, Pennsylvania, USA
Distance from station: SE 19mi, 31km
Updated: Sun, 20-Jan-2019 3:54pm EST
Few Clouds
Few Clouds
 Wind from NW
Wind: NW 31 mph , 50 km/h, Gust: 38 mph , 61 km/h
Temperature: 25°F , -4°C
Wind Chill: 8°F , -13°C
Dew Point: 12°F , -11°C
Humidity: 59%
Barometer: 29.62 inHg , 1003 hPa
Clouds: Few Clouds
Visibility: 10 miles , 16 km
Cloud details: Few Clouds 3600 ft
2019/01/20 20:54 KRDG 202054Z AUTO 32027G33KT 10SM FEW036 M04/M11 A2962 RMK AO2 PK WND 30035/2044 SLP037 T10441106 51044
KLNS - Lancaster, Pennsylvania, USA
Distance from station: S 33mi, 53km
Updated: Sun, 20-Jan-2019 3:53pm EST
Few Clouds
Few Clouds
 Wind from NW
Wind: NW 28 mph , 44 km/h, Gust: 37 mph , 59 km/h
Temperature: 28°F , -2°C
Wind Chill: 13°F , -11°C
Dew Point: 14°F , -10°C
Humidity: 55%
Barometer: 29.63 inHg , 1003.4 hPa
Clouds: Few Clouds
Visibility: 10 miles , 16 km
Cloud details: Few Clouds 3400 ft
2019/01/20 20:53 KLNS 202053Z 32024G32KT 10SM FEW034 M02/M10 A2963 RMK AO2 PK WND 33035/1955 SLP037 T10221100 53046
 
KSEG - Selinsgrove, Pennsylvania, USA
Distance from station: WNW 39mi, 62km
Updated: Sun, 20-Jan-2019 3:53pm EST
Overcast
Overcast
 Wind from NW
Wind: NW 10 mph , 17 km/h, Gust: 23 mph , 37 km/h
Temperature: 21°F , -6°C
Wind Chill: 10°F , -12°C
Dew Point: 10°F , -12°C
Humidity: 63%
Barometer: 29.72 inHg , 1006.4 hPa
Clouds: Overcast
Visibility: 10 miles , 16 km
Cloud details: Overcast 3500 ft
2019/01/20 20:53 KSEG 202053Z AUTO 32009G20KT 280V350 10SM OVC035 M06/M12 A2972 RMK AO2 SLP068 T10561122 53031
KABE - Allentown, Pennsylvania, USA
Distance from station: E 39mi, 63km
Updated: Sun, 20-Jan-2019 3:51pm EST
Mostly Cloudy
Mostly Cloudy
 Wind from NNW
Wind: NNW 15 mph , 24 km/h
Temperature: 25°F , -4°C
Wind Chill: 13°F , -11°C
Dew Point: 12°F , -11°C
Humidity: 59%
Barometer: 29.59 inHg , 1002 hPa
Clouds: Mostly Cloudy
Visibility: 10 miles , 16 km
Cloud details: Mostly Cloudy 3400 ft
2019/01/20 20:51 KABE 202051Z 33013KT 10SM BKN034 M04/M11 A2959 RMK AO2 PK WND 31027/1956 SLP023 T10391111 53037
 
KMDT - Middletown, Pennsylvania, USA
Distance from station: SW 40mi, 65km
Updated: Sun, 20-Jan-2019 3:56pm EST
Mostly Cloudy
Mostly Cloudy
 Wind from NW
Wind: NW 26 mph , 43 km/h, Gust: 37 mph , 59 km/h
Temperature: 25°F , -4°C
Wind Chill: 9°F , -13°C
Dew Point: 12°F , -11°C
Humidity: 59%
Barometer: 29.69 inHg , 1005.4 hPa
Clouds: Mostly Cloudy
Visibility: 10 miles , 16 km
Cloud details: Mostly Cloudy 3800 ft
2019/01/20 20:56 KMDT 202056Z 31023G32KT 10SM BKN038 M04/M11 A2969 RMK AO2 PK WND 30032/2054 SLP056 60000 T10391111 53043
KPTW - Pottstown, Pennsylvania, USA
Distance from station: SE 42mi, 67km
Updated: Sun, 20-Jan-2019 3:54pm EST
Partly Cloudy
Partly Cloudy
 Wind from NW
Wind: NW 15 mph , 24 km/h, Gust: 23 mph , 37 km/h
Temperature: 25°F , -4°C
Wind Chill: 13°F , -11°C
Dew Point: 12°F , -11°C
Humidity: 59%
Barometer: 29.60 inHg , 1002.4 hPa
Clouds: Partly Cloudy
Visibility: 10 miles , 16 km
Cloud details: Partly Cloudy 3400 ft
2019/01/20 20:54 KPTW 202054Z AUTO 31013G20KT 10SM SCT034 M04/M11 A2960 RMK AO2 PK WND 30032/2013 SLP024 T10441111 53054 TSNO
 
KCXY - Harrisburg, Pennsylvania, USA
Distance from station: SW 43mi, 69km
Updated: Sun, 20-Jan-2019 3:56pm EST
Few Clouds
Few Clouds
 Wind from NW
Wind: NW 18 mph , 30 km/h, Gust: 31 mph , 50 km/h
Temperature: 27°F , -3°C
Wind Chill: 14°F , -10°C
Dew Point: 12°F , -11°C
Humidity: 54%
Barometer: 29.69 inHg , 1005.4 hPa
Clouds: Few Clouds
Visibility: 10 miles , 16 km
Cloud details: Few Clouds 3900 ft
2019/01/20 20:56 KCXY 202056Z 31016G27KT 10SM FEW039 M03/M11 A2969 RMK AO2 PK WND 31034/2045 SLP058 T10281111 53037
KUKT - Quakertown Arp, Pennsylvania, USA
Distance from station: ESE 44mi, 70km
Updated: Sun, 20-Jan-2019 3:55pm EST
Partly Cloudy
Partly Cloudy
 Wind from W
Wind: W 16 mph , 26 km/h, Gust: 25 mph , 41 km/h
Temperature: 25°F , -4°C
Wind Chill: 12°F , -11°C
Dew Point: 12°F , -11°C
Humidity: 59%
Barometer: 29.56 inHg , 1001 hPa
Clouds: Partly Cloudy
Visibility: 10 miles , 16 km
Cloud details: Partly Cloudy 3200 ft
2019/01/20 20:55 KUKT 202055Z AUTO 26014G22KT 230V300 10SM SCT032 M04/M11 A2956 RMK A01
 
KMQS - Coatesville, Pennsylvania, USA
Distance from station: SSE 45mi, 72km
Updated: Sun, 20-Jan-2019 3:55pm EST
Few Clouds
Few Clouds
 Wind from NW
Wind: NW 21 mph , 33 km/h
Temperature: 27°F , -3°C
Wind Chill: 13°F , -11°C
Dew Point: 16°F , -9°C
Humidity: 64%
Barometer: 29.59 inHg , 1002 hPa
Clouds: Few Clouds
Visibility: 10 miles , 16 km
Cloud details: Few Clouds 3100 ft
2019/01/20 20:55 KMQS 202055Z AUTO 32018KT 10SM FEW031 M03/M09 A2959 RMK AO2
KMPO - Mt. Pocono, Pennsylvania, USA
Distance from station: NE 57mi, 92km
Updated: Sun, 20-Jan-2019 4:08pm EST
Light snow, Mist, Overcast
Light snow, Mist, Overcast
 Wind from NW
Wind: NW 32 mph , 52 km/h, Gust: 40 mph , 65 km/h
Temperature: 9°F , -13°C
Wind Chill: -14°F , -26°C
Dew Point: 3°F , -16°C
Humidity: 78%
Barometer: 29.45 inHg , 997.3 hPa
Summary: Light snow, Mist
Clouds: Overcast
Visibility: 2 1/2 miles , 2 km
Cloud details: Overcast 1800 ft
2019/01/20 21:08 KMPO 202108Z AUTO 31028G35KT 2 1/2SM -SN BR OVC018 M13/M16 A2945 RMK AO2 PK WND 31037/2055 VIS 2V3 P0000 T11331156 $
 
KAVP - Avoca/Wilkes B., Pennsylvania, USA
Distance from station: NNE 58mi, 93km
Updated: Sun, 20-Jan-2019 3:54pm EST
Overcast
Overcast
 Wind from NW
Wind: NW 23 mph , 37 km/h, Gust: 35 mph , 56 km/h
Temperature: 12°F , -11°C
Wind Chill: -7°F , -22°C
Dew Point: 3°F , -16°C
Humidity: 67%
Barometer: 29.63 inHg , 1003.4 hPa
Clouds: Overcast
Visibility: 5 miles , 8 km
Cloud details: Overcast 2500 ft
2019/01/20 20:54 KAVP 202054Z 32020G30KT 5SM UP OVC025 M11/M16 A2963 RMK AO2 PK WND 33030/2029 UPB19E32B48SNB20E30 SLP042 P0000 60000 T11061156 53029
KTHV - York, Pennsylvania, USA
Distance from station: SW 59mi, 94km
Updated: Sun, 20-Jan-2019 3:53pm EST
Clear
Clear
 Wind from WNW
Wind: WNW 21 mph , 33 km/h, Gust: 33 mph , 54 km/h
Temperature: 27°F , -3°C
Wind Chill: 13°F , -11°C
Dew Point: 14°F , -10°C
Humidity: 59%
Barometer: 29.67 inHg , 1004.7 hPa
Clouds: Clear
Visibility: 10 miles , 16 km
2019/01/20 20:53 KTHV 202053Z AUTO 30018G29KT 10SM CLR M03/M10 A2967 RMK AO2 PK WND 31031/2028 SLP055 T10331100 51043
 
KDYL - Doylestown, Pennsylvania, USA
Distance from station: ESE 59mi, 95km
Updated: Sun, 20-Jan-2019 3:54pm EST
Few Clouds
Few Clouds
 Wind from NW
Wind: NW 16 mph , 26 km/h, Gust: 26 mph , 43 km/h
Temperature: 27°F , -3°C
Wind Chill: 15°F , -9°C
Dew Point: 12°F , -11°C
Humidity: 54%
Barometer: 29.53 inHg , 1000 hPa
Clouds: Few Clouds
Visibility: 10 miles , 16 km
Cloud details: Few Clouds 9500 ft
2019/01/20 20:54 KDYL 202054Z AUTO 31014G23KT 10SM FEW095 M03/M11 A2953 RMK AO2 PK WND 32035/2015 SLP008 T10281106 53054
KIPT - Williamsport, Pennsylvania, USA
Distance from station: NW 60mi, 96km
Updated: Sun, 20-Jan-2019 3:54pm EST
Overcast
Overcast
 Wind from NNW
Wind: NNW 13 mph , 20 km/h
Temperature: 19°F , -7°C
Wind Chill: 6°F , -14°C
Dew Point: 9°F , -13°C
Humidity: 63%
Barometer: 29.71 inHg , 1006.1 hPa
Clouds: Overcast
Visibility: 10 miles , 16 km
Cloud details: Overcast 3700 ft
2019/01/20 20:54 KIPT 202054Z 33011KT 10SM OVC037 M07/M13 A2971 RMK AO2 SLP066 T10671133 53026